Terminal Aerodrome Forecast
Issued by NWS

Home | Current Version | Previous Version | Text Only | Print | Product List | Glossary On
Versions: 1 2 3 4 5 6 7 8 9 10 11 12
904
FTUS46 KHNX 061723
TAFBFL
TAF
KBFL 061723Z 0618/0718 30005KT 4SM HZ BKN020
     FM062100 31007KT 5SM HZ BKN250
     FM070300 VRB04KT 5SM HZ BKN250=

USA.gov is the U.S. government's official web portal to all federal, state and local government web resources and services.